createdAt,value
2018-06-22T00:03:36.433Z,35.13
2018-06-22T00:08:39.878Z,24.03
2018-06-22T00:13:43.060Z,30.80
2018-06-22T00:18:46.923Z,37.17
2018-06-22T00:23:50.542Z,19.87
2018-06-22T00:28:53.677Z,13.00
2018-06-22T00:33:57.049Z,27.10
2018-06-22T00:39:00.140Z,24.57
2018-06-22T00:44:03.381Z,24.70
2018-06-22T00:49:07.458Z,9.90
2018-06-22T00:54:17.433Z,10.30
2018-06-22T00:59:25.476Z,23.70
2018-06-22T01:04:29.832Z,18.03
2018-06-22T01:09:33.536Z,14.43
2018-06-22T01:14:36.425Z,18.10
2018-06-22T01:19:39.738Z,12.13
2018-06-22T01:24:42.876Z,11.80
2018-06-22T01:29:46.017Z,17.63
2018-06-22T01:34:49.090Z,19.93
2018-06-22T01:39:52.448Z,14.00
2018-06-22T01:44:55.881Z,6.50
2018-06-22T01:50:01.664Z,4.97
2018-06-22T01:55:04.761Z,14.33
2018-06-22T02:00:08.135Z,13.60
2018-06-22T02:05:11.115Z,11.83
2018-06-22T02:10:14.435Z,11.97
2018-06-22T02:15:17.506Z,19.00
2018-06-22T02:20:20.759Z,13.20
2018-06-22T02:25:23.845Z,6.93
2018-06-22T02:30:26.920Z,22.43
2018-06-22T02:35:30.665Z,11.17
2018-06-22T02:40:33.600Z,13.50
2018-06-22T02:45:37.468Z,16.10
2018-06-22T02:50:40.453Z,22.00
2018-06-22T02:55:43.454Z,17.70
2018-06-22T03:00:46.705Z,26.60
2018-06-22T03:05:49.634Z,25.47
2018-06-22T03:10:53.404Z,18.40
2018-06-22T03:15:56.818Z,19.10
2018-06-22T03:21:00.700Z,10.00
2018-06-22T03:26:03.831Z,10.63
2018-06-22T03:31:07.728Z,17.83
2018-06-22T03:36:10.940Z,16.73
2018-06-22T03:41:14.286Z,9.20
2018-06-22T03:46:17.233Z,13.20
2018-06-22T03:51:20.646Z,23.53
2018-06-22T03:56:24.475Z,15.90
2018-06-22T04:01:27.726Z,6.43
2018-06-22T04:06:31.664Z,12.63
2018-06-22T04:11:34.829Z,16.97
2018-06-22T04:16:37.915Z,19.00
2018-06-22T04:21:41.359Z,17.87
2018-06-22T04:26:44.851Z,16.60
2018-06-22T04:31:48.370Z,18.13
2018-06-22T04:36:51.467Z,24.43
2018-06-22T04:41:54.642Z,19.23
2018-06-22T04:46:57.567Z,30.53
2018-06-22T04:52:00.641Z,22.63
2018-06-22T04:57:03.596Z,19.07
2018-06-22T05:02:07.022Z,27.07
2018-06-22T05:07:10.014Z,34.60
2018-06-22T05:12:12.912Z,14.60
2018-06-22T05:17:15.853Z,24.13
2018-06-22T05:22:18.828Z,22.30
2018-06-22T05:27:22.385Z,23.43
2018-06-22T05:32:25.648Z,18.07
2018-06-22T05:37:29.799Z,24.27
2018-06-22T05:42:36.580Z,18.53
2018-06-22T05:47:39.912Z,16.50
2018-06-22T05:52:42.853Z,28.10
2018-06-22T05:57:45.761Z,20.93
2018-06-22T06:02:49.262Z,20.70
2018-06-22T06:07:52.412Z,28.27
2018-06-22T06:12:55.272Z,18.40
2018-06-22T06:17:58.190Z,26.43
2018-06-22T06:23:01.153Z,23.00
2018-06-22T06:28:04.089Z,23.03
2018-06-22T06:33:06.961Z,21.57
2018-06-22T06:38:14.093Z,34.77
2018-06-22T06:43:17.280Z,17.37
2018-06-22T06:48:20.176Z,25.50
2018-06-22T06:53:23.075Z,14.73
2018-06-22T06:58:25.966Z,27.33
2018-06-22T07:03:29.113Z,18.97
2018-06-22T07:08:32.606Z,21.20
2018-06-22T07:13:35.566Z,35.03
2018-06-22T07:18:38.471Z,24.33
2018-06-22T07:23:41.551Z,13.43
2018-06-22T07:28:44.448Z,22.53
2018-06-22T07:33:47.380Z,12.97
2018-06-22T07:38:51.206Z,17.23
2018-06-22T07:44:04.696Z,10.83
2018-06-22T07:49:07.861Z,17.93
2018-06-22T07:54:10.788Z,9.73
2018-06-22T07:59:13.688Z,18.07
2018-06-22T08:04:16.639Z,12.93
2018-06-22T08:09:19.826Z,12.33
2018-06-22T08:14:22.740Z,24.10
2018-06-22T08:19:25.610Z,15.80
2018-06-22T08:24:28.540Z,13.70
2018-06-22T08:29:31.521Z,12.50
2018-06-22T08:34:34.368Z,13.40
2018-06-22T08:39:37.410Z,20.07
2018-06-22T08:44:40.573Z,20.63
2018-06-22T08:49:43.521Z,21.07
2018-06-22T08:54:46.615Z,23.40
2018-06-22T08:59:49.531Z,21.83
2018-06-22T09:04:52.505Z,16.03
2018-06-22T09:09:55.421Z,28.80
2018-06-22T09:15:01.434Z,24.03
2018-06-22T09:20:04.901Z,11.87
2018-06-22T09:25:08.072Z,25.70
2018-06-22T09:30:10.935Z,19.50
2018-06-22T09:35:14.121Z,14.57
2018-06-22T09:40:17.108Z,27.03
2018-06-22T09:45:21.555Z,17.60
2018-06-22T09:50:24.539Z,23.47
2018-06-22T09:55:28.121Z,11.17
2018-06-22T10:00:31.001Z,19.33
2018-06-22T10:05:34.037Z,14.70
2018-06-22T10:10:37.619Z,15.93
2018-06-22T10:15:40.752Z,15.40
2018-06-22T10:20:43.913Z,13.93
2018-06-22T10:25:46.870Z,15.70
2018-06-22T10:30:49.933Z,12.73
2018-06-22T10:35:53.232Z,14.10
2018-06-22T10:40:56.107Z,20.67
2018-06-22T10:45:59.284Z,19.50
2018-06-22T10:51:03.246Z,18.50
2018-06-22T10:56:06.280Z,18.70
2018-06-22T11:01:09.213Z,21.23
2018-06-22T11:06:12.200Z,15.20
2018-06-22T11:11:15.271Z,20.33
2018-06-22T11:16:18.140Z,20.57
2018-06-22T11:21:21.078Z,24.80
2018-06-22T11:26:24.274Z,22.93
2018-06-22T11:31:31.814Z,19.40
2018-06-22T11:36:35.103Z,17.43
2018-06-22T11:41:38.920Z,24.33
2018-06-22T11:46:41.864Z,25.70
2018-06-22T11:51:45.161Z,26.43
2018-06-22T11:56:48.637Z,21.87
2018-06-22T12:01:51.531Z,21.30
2018-06-22T12:06:54.803Z,16.73
2018-06-22T12:11:58.013Z,17.20
2018-06-22T12:17:00.923Z,24.03
2018-06-22T12:22:03.894Z,20.90
2018-06-22T12:27:07.253Z,16.67
2018-06-22T12:32:10.140Z,18.93
2018-06-22T12:37:13.036Z,22.87
2018-06-22T12:42:16.119Z,17.70
2018-06-22T12:47:19.036Z,16.90
2018-06-22T12:52:21.942Z,25.10
2018-06-22T12:57:26.137Z,19.03
2018-06-22T13:02:29.157Z,28.10
2018-06-22T13:07:32.252Z,29.43
2018-06-22T13:12:35.176Z,32.80
2018-06-22T13:17:38.073Z,21.70
2018-06-22T13:22:41.597Z,26.37
2018-06-22T13:27:44.822Z,16.17
2018-06-22T13:32:47.905Z,17.87
2018-06-22T13:37:50.863Z,11.20
2018-06-22T13:42:54.222Z,26.03
2018-06-22T13:47:57.219Z,22.40
2018-06-22T13:53:00.141Z,17.17
2018-06-22T13:58:03.332Z,19.43
2018-06-22T14:03:06.575Z,30.53
2018-06-22T14:08:16.350Z,27.23
2018-06-22T14:13:21.598Z,19.20
2018-06-22T14:18:24.940Z,16.90
2018-06-22T14:23:28.646Z,26.00
2018-06-22T14:28:35.185Z,30.37
2018-06-22T14:33:41.616Z,17.53
2018-06-22T14:38:44.698Z,27.03
2018-06-22T14:43:48.765Z,23.23
2018-06-22T14:48:51.756Z,31.70
2018-06-22T14:54:01.684Z,20.83
2018-06-22T14:59:11.234Z,23.93
2018-06-22T15:04:19.889Z,22.23
2018-06-22T15:09:23.211Z,30.53
2018-06-22T15:14:26.464Z,25.40
2018-06-22T15:19:29.733Z,25.00
2018-06-22T15:24:32.664Z,14.23
2018-06-22T15:29:36.049Z,19.87
2018-06-22T15:34:44.565Z,23.03
2018-06-22T15:39:53.090Z,33.37
2018-06-22T15:45:01.585Z,26.67
2018-06-22T15:50:10.202Z,39.30
2018-06-22T15:55:17.923Z,23.27
2018-06-22T16:00:20.934Z,29.83
2018-06-22T16:05:24.671Z,29.23
2018-06-22T16:10:27.733Z,31.80
2018-06-22T16:15:36.487Z,25.13
2018-06-22T16:20:44.836Z,24.87
2018-06-22T16:25:55.089Z,30.83
2018-06-22T16:31:02.070Z,34.03
2018-06-22T16:36:05.768Z,26.10
2018-06-22T16:41:08.693Z,24.60
2018-06-22T16:46:12.847Z,23.13
2018-06-22T16:51:16.428Z,23.27
2018-06-22T16:56:19.562Z,19.23
2018-06-22T17:01:26.571Z,21.83
2018-06-22T17:06:35.393Z,14.00
2018-06-22T17:11:44.127Z,19.53
2018-06-22T17:16:52.690Z,25.50
2018-06-22T17:21:56.366Z,18.87
2018-06-22T17:26:59.294Z,21.00
2018-06-22T17:32:02.341Z,25.17
2018-06-22T17:37:05.500Z,23.67
2018-06-22T17:42:08.847Z,21.10
2018-06-22T17:47:11.960Z,24.20
2018-06-22T17:52:14.923Z,38.33
2018-06-22T17:57:17.964Z,33.13
2018-06-22T18:02:26.993Z,29.97
2018-06-22T18:07:35.049Z,35.57
2018-06-22T18:12:44.591Z,37.97
2018-06-22T18:17:47.971Z,35.33
2018-06-22T18:22:53.135Z,45.30
2018-06-22T18:27:56.119Z,32.83
2018-06-22T18:32:59.316Z,45.70
2018-06-22T18:38:02.321Z,50.67
2018-06-22T18:43:05.681Z,38.40
2018-06-22T18:48:09.398Z,46.50
2018-06-22T18:53:18.415Z,35.43
2018-06-22T18:58:27.170Z,53.50
2018-06-22T19:03:35.775Z,50.73
2018-06-22T19:08:39.134Z,45.83
2018-06-22T19:13:42.631Z,49.70
2018-06-22T19:18:46.435Z,53.57
2018-06-22T19:23:49.631Z,63.13
2018-06-22T19:28:52.507Z,49.33
2018-06-22T19:33:55.945Z,70.70
2018-06-22T19:38:59.280Z,55.70
2018-06-22T19:44:07.908Z,56.77
2018-06-22T19:49:16.807Z,57.40
2018-06-22T19:54:20.284Z,59.57
2018-06-22T19:59:23.206Z,51.60
2018-06-22T20:04:26.398Z,54.40
2018-06-22T20:09:29.563Z,60.90
2018-06-22T20:14:32.724Z,68.73
2018-06-22T20:19:36.085Z,48.17
2018-06-22T20:24:45.132Z,48.50
2018-06-22T20:29:48.194Z,51.30
2018-06-22T20:34:56.869Z,57.37
2018-06-22T20:40:05.225Z,44.90
2018-06-22T20:45:13.732Z,50.80
2018-06-22T20:50:22.600Z,43.17
2018-06-22T20:55:25.520Z,44.63
2018-06-22T21:00:28.784Z,62.13
2018-06-22T21:05:31.882Z,48.90
2018-06-22T21:10:34.799Z,33.80
2018-06-22T21:15:37.789Z,47.30
2018-06-22T21:20:46.551Z,58.70
2018-06-22T21:25:50.962Z,55.77
2018-06-22T21:31:00.495Z,48.87
2018-06-22T21:36:09.416Z,50.33
2018-06-22T21:41:12.566Z,53.30
2018-06-22T21:46:15.746Z,43.57
2018-06-22T21:51:20.337Z,50.53
2018-06-22T21:56:24.238Z,43.00
2018-06-22T22:01:27.278Z,49.17
2018-06-22T22:06:30.245Z,45.30
2018-06-22T22:11:39.173Z,58.83
2018-06-22T22:16:42.876Z,49.80
2018-06-22T22:21:46.721Z,51.47
2018-06-22T22:26:50.040Z,47.57
2018-06-22T22:31:53.688Z,49.03
2018-06-22T22:36:57.792Z,56.37
2018-06-22T22:42:01.347Z,64.83
2018-06-22T22:47:04.759Z,59.50
2018-06-22T22:52:07.980Z,50.20
2018-06-22T22:57:14.143Z,57.30
2018-06-22T23:02:17.844Z,61.23
2018-06-22T23:07:21.224Z,58.20
2018-06-22T23:12:24.162Z,49.13
2018-06-22T23:17:27.664Z,42.40
2018-06-22T23:22:43.188Z,44.80
2018-06-22T23:27:46.459Z,36.73
2018-06-22T23:32:50.396Z,44.77
2018-06-22T23:37:55.229Z,36.30
2018-06-22T23:42:58.576Z,99.37
2018-06-22T23:48:01.594Z,51.23
2018-06-22T23:53:04.812Z,68.07
2018-06-22T23:58:08.176Z,50.83
